Bloomington, Indiana
Current Conditions -  °F | °C
As of 9:53 PM on Friday 28 Nov 2014 (Local Time) from KBMG Reporting Station
Clear Clear  
Wind Chill: 29°   Ceiling: Unl
Heat Index: 34°   Visibility: 10mi
Dew Point: 25°   Wind: 6mph
Humidity: 70%   Direction: 170°S
Pressure: 30.04"   Gusts: NA
Location:  39.17°N, 86.53°W
Report Text: KBMG 290253Z 17005KT 10SM CLR 01/M04 A3004 RMK AO2 SLP180 T00111039 57014
Loading
Personal Weather Stations






























Interactive Weather Map New forecast layout! Learn more

10-Day Weather Forecast

Advertisements
Track Severe Weather on mobile